Time;durP1;ratioP1;P1;durP2;ratioP2;P2;SDS_P1;SDS_P2;PMS_P1;PMS_P2;Temp;Humidity;BMP_temperature;BMP_pressure;BME280_temperature;BME280_humidity;BME280_pressure;Samples;Min_cycle;Max_cycle;Signal;HPM_P1;HPM_P2
2022/05/16 00:00:13;;;;;;;10.15;5.32;;;12.30;91.30;;;;;;4906810;29;20153;-85
2022/05/16 00:02:39;;;;;;;7.72;4.90;;;12.30;62.20;;;;;;4901502;29;20040;-84
2022/05/16 00:05:06;;;;;;;10.48;5.63;;;12.40;77.70;;;;;;4901139;29;20051;-84
2022/05/16 00:07:32;;;;;;;9.93;5.70;;;12.40;83.10;;;;;;4901526;29;20126;-84
2022/05/16 00:09:58;;;;;;;8.15;4.63;;;12.40;73.30;;;;;;4899608;29;20058;-83
2022/05/16 00:12:24;;;;;;;10.98;5.10;;;12.40;70.20;;;;;;4885522;29;20608;-84
2022/05/16 00:14:50;;;;;;;11.18;5.28;;;12.40;66.30;;;;;;4882742;29;20066;-84
2022/05/16 00:17:16;;;;;;;7.82;5.32;;;12.40;41.60;;;;;;4901189;29;20552;-85
2022/05/16 00:19:42;;;;;;;9.55;5.03;;;12.40;32.70;;;;;;4900561;29;20418;-84
2022/05/16 00:22:08;;;;;;;8.75;5.20;;;12.40;11.80;;;;;;4900383;29;20142;-84
2022/05/16 00:24:34;;;;;;;11.07;5.57;;;12.30;21.40;;;;;;4900034;29;20036;-85
2022/05/16 00:27:00;;;;;;;9.93;4.90;;;12.30;67.70;;;;;;4883546;29;20056;-85
2022/05/16 00:29:27;;;;;;;9.50;5.30;;;12.30;32.60;;;;;;4905142;29;20032;-85
2022/05/16 00:31:55;;;;;;;11.68;5.47;;;12.30;54.50;;;;;;4904003;29;20682;-84
2022/05/16 00:34:21;;;;;;;7.75;4.78;;;12.30;51.70;;;;;;4900255;29;20059;-84
2022/05/16 00:36:47;;;;;;;10.63;5.00;;;12.30;41.00;;;;;;4901043;29;20059;-84
2022/05/16 00:39:17;;;;;;;10.52;5.03;;;12.30;8.20;;;;;;4885250;29;20061;-85
2022/05/16 00:41:44;;;;;;;9.55;5.22;;;12.30;44.60;;;;;;4900322;29;20529;-83
2022/05/16 00:44:11;;;;;;;7.72;5.05;;;12.30;30.00;;;;;;4884781;29;20735;-84
2022/05/16 00:46:37;;;;;;;10.23;5.18;;;12.30;26.10;;;;;;4900398;29;20506;-84
2022/05/16 00:49:07;;;;;;;10.98;5.35;;;12.30;7.30;;;;;;4900082;29;20047;-85
2022/05/16 00:51:38;;;;;;;7.97;4.72;;;12.20;12.50;;;;;;4900668;29;20822;-85
2022/05/16 00:54:20;;;;;;;7.18;4.97;;;12.20;8.00;;;;;;4902286;29;20086;-84
2022/05/16 00:56:50;;;;;;;10.50;4.85;;;12.20;7.00;;;;;;4900072;29;20448;-84
2022/05/16 00:59:17;;;;;;;10.02;4.60;;;12.20;1.00;;;;;;4900213;29;20043;-84
2022/05/16 01:07:11;;;;;;;8.75;4.45;;;12.10;1.00;;;;;;4899221;29;20039;-84
2022/05/16 01:09:37;;;;;;;12.60;5.65;;;12.10;1.00;;;;;;4903244;29;20460;-85
2022/05/16 01:12:04;;;;;;;7.72;4.93;;;12.00;1.00;;;;;;4900128;29;20086;-85
2022/05/16 01:14:41;;;;;;;10.70;5.03;;;12.00;1.00;;;;;;4897015;29;20051;-84
2022/05/16 01:17:06;;;;;;;8.40;4.75;;;11.90;1.00;;;;;;4899106;29;20051;-84
2022/05/16 01:19:35;;;;;;;7.78;4.90;;;11.90;1.00;;;;;;4887762;29;20075;-84
2022/05/16 01:22:21;;;;;;;9.27;5.35;;;11.90;1.00;;;;;;4902513;29;20051;-84
2022/05/16 01:24:47;;;;;;;7.97;4.50;;;11.90;1.00;;;;;;4904123;29;20074;-84
2022/05/16 01:27:12;;;;;;;9.65;4.53;;;11.90;1.00;;;;;;4903416;29;20079;-85
2022/05/16 01:29:38;;;;;;;8.45;4.95;;;11.90;1.00;;;;;;4888087;29;20500;-84
2022/05/16 01:32:04;;;;;;;7.50;4.20;;;11.80;1.00;;;;;;4885948;29;20040;-85
2022/05/16 01:34:30;;;;;;;7.75;4.50;;;11.80;1.00;;;;;;4903666;29;20272;-84
2022/05/16 01:36:56;;;;;;;9.45;4.47;;;11.80;1.00;;;;;;4908068;29;20051;-84
2022/05/16 01:39:24;;;;;;;9.02;5.40;;;11.80;1.00;;;;;;4903498;29;20102;-84
2022/05/16 01:41:50;;;;;;;9.43;4.40;;;11.80;1.00;;;;;;4904477;29;20363;-85
2022/05/16 01:44:15;;;;;;;10.77;4.70;;;11.70;1.00;;;;;;4904729;29;20463;-85
2022/05/16 01:46:41;;;;;;;8.00;4.43;;;11.70;1.00;;;;;;4886244;29;20035;-85
2022/05/16 01:49:09;;;;;;;8.02;4.70;;;11.70;1.00;;;;;;4901826;29;20418;-84
2022/05/16 01:51:35;;;;;;;6.07;4.15;;;11.70;1.00;;;;;;4884585;29;20445;-84
2022/05/16 01:54:03;;;;;;;10.60;4.20;;;11.70;1.00;;;;;;4903356;29;20048;-84
2022/05/16 01:56:30;;;;;;;7.30;4.75;;;11.70;1.00;;;;;;4885740;29;20051;-84
2022/05/16 01:58:57;;;;;;;9.98;4.43;;;11.70;1.00;;;;;;4921369;29;20094;-84
2022/05/16 02:01:23;;;;;;;7.25;4.05;;;11.70;1.00;;;;;;4902359;29;20489;-83
2022/05/16 02:03:49;;;;;;;7.57;4.07;;;11.70;1.00;;;;;;4905875;29;20385;-84
2022/05/16 02:06:15;;;;;;;7.47;4.15;;;11.70;1.00;;;;;;4901645;29;20477;-84
2022/05/16 02:08:42;;;;;;;6.22;3.70;;;11.60;1.00;;;;;;4901848;29;20055;-84
2022/05/16 02:11:08;;;;;;;8.73;4.20;;;11.60;1.00;;;;;;4902822;29;20070;-84
2022/05/16 02:13:36;;;;;;;6.28;3.88;;;11.70;1.00;;;;;;4889371;29;20502;-83
2022/05/16 02:16:01;;;;;;;8.82;3.70;;;11.70;1.00;;;;;;4902188;29;20283;-84
2022/05/16 02:18:27;;;;;;;6.57;3.58;;;11.60;1.00;;;;;;4931130;28;20273;-84
2022/05/16 02:24:38;;;;;;;6.53;3.85;;;11.70;1.00;;;;;;4916312;29;20047;-84
2022/05/16 02:26:23;;;;;;;6.43;3.55;;;11.60;1.00;;;;;;4902554;29;20044;-83
2022/05/16 02:28:49;;;;;;;9.75;4.25;;;11.60;1.00;;;;;;4887268;29;20044;-84
2022/05/16 02:31:14;;;;;;;7.78;3.60;;;11.60;1.00;;;;;;4899714;29;20040;-84
2022/05/16 02:33:40;;;;;;;6.03;3.50;;;11.60;1.00;;;;;;4900976;29;20393;-84
2022/05/16 02:36:05;;;;;;;7.60;3.55;;;11.60;1.00;;;;;;4885199;29;20117;-84
2022/05/16 02:38:31;;;;;;;7.75;3.60;;;11.50;1.00;;;;;;4901933;29;20257;-85
2022/05/16 02:40:57;;;;;;;5.32;3.40;;;11.50;1.00;;;;;;4904148;29;20680;-84
2022/05/16 02:43:22;;;;;;;5.50;3.30;;;11.50;1.00;;;;;;4902864;29;22132;-85
2022/05/16 02:45:48;;;;;;;4.45;3.17;;;11.50;1.00;;;;;;4902913;29;20035;-85
2022/05/16 02:48:14;;;;;;;4.50;2.95;;;11.50;1.00;;;;;;4885570;29;20511;-84
2022/05/16 02:50:39;;;;;;;6.85;3.03;;;11.50;1.00;;;;;;4903376;29;20028;-83
2022/05/16 02:53:07;;;;;;;6.78;3.22;;;11.50;1.00;;;;;;4901363;29;20045;-84
2022/05/16 02:55:33;;;;;;;5.90;3.10;;;11.40;1.00;;;;;;4901414;29;20269;-84
2022/05/16 02:57:59;;;;;;;6.13;3.25;;;11.40;1.00;;;;;;4899270;29;20201;-84
2022/05/16 03:00:25;;;;;;;4.63;3.28;;;11.40;1.00;;;;;;4888137;29;20062;-84
2022/05/16 03:02:50;;;;;;;7.00;3.28;;;11.40;1.00;;;;;;4900261;29;20094;-84
2022/05/16 03:05:16;;;;;;;5.25;3.05;;;11.30;1.00;;;;;;4932292;28;20054;-84
2022/05/16 03:07:42;;;;;;;7.80;3.42;;;11.30;1.00;;;;;;4901444;29;20044;-84
2022/05/16 03:10:11;;;;;;;6.68;3.00;;;11.30;1.00;;;;;;4916388;29;20046;-85
2022/05/16 03:12:37;;;;;;;8.23;2.80;;;11.30;1.00;;;;;;4885306;29;20039;-84
2022/05/16 03:15:04;;;;;;;6.20;2.80;;;11.30;1.00;;;;;;4900951;29;20066;-84
2022/05/16 03:17:32;;;;;;;5.90;3.00;;;11.30;1.00;;;;;;4896785;29;20046;-84
2022/05/16 03:19:59;;;;;;;4.10;2.97;;;11.30;1.00;;;;;;4898129;29;20047;-84
2022/05/16 03:22:25;;;;;;;6.53;2.78;;;11.20;1.00;;;;;;4919707;29;20517;-84
2022/05/16 03:24:50;;;;;;;5.18;2.88;;;11.20;1.00;;;;;;4901392;29;20038;-84
2022/05/16 03:27:16;;;;;;;6.22;2.90;;;11.20;1.00;;;;;;4899642;29;20066;-84
2022/05/16 03:29:42;;;;;;;5.40;3.15;;;11.20;1.00;;;;;;4904415;29;20097;-84
2022/05/16 03:32:07;;;;;;;4.18;2.83;;;11.20;1.00;;;;;;4883259;29;20505;-83
2022/05/16 03:34:33;;;;;;;6.07;3.05;;;11.20;1.00;;;;;;4902553;29;20301;-83
2022/05/16 03:36:59;;;;;;;3.92;2.42;;;11.20;1.00;;;;;;4899543;29;20110;-84
2022/05/16 03:42:19;;;;;;;4.25;2.58;;;11.10;1.00;;;;;;4830609;29;20048;-83
2022/05/16 03:44:45;;;;;;;5.60;3.03;;;11.20;1.00;;;;;;4905315;29;20028;-84
2022/05/16 03:47:11;;;;;;;7.78;3.28;;;11.20;1.00;;;;;;4883658;29;20399;-84
2022/05/16 03:49:36;;;;;;;4.32;2.75;;;11.10;1.00;;;;;;4899764;29;20051;-84
2022/05/16 03:52:02;;;;;;;5.65;2.80;;;11.10;1.00;;;;;;4901438;29;20052;-83
2022/05/16 03:54:28;;;;;;;5.53;2.88;;;11.10;1.00;;;;;;4899248;29;20064;-84
2022/05/16 03:56:54;;;;;;;5.65;3.13;;;11.10;1.00;;;;;;4899570;29;20047;-84
2022/05/16 03:59:20;;;;;;;4.72;2.80;;;11.10;1.00;;;;;;4900320;29;20517;-84
2022/05/16 04:01:49;;;;;;;6.53;3.20;;;11.10;1.00;;;;;;4903179;29;20027;-84
2022/05/16 04:04:16;;;;;;;5.97;2.75;;;11.20;1.00;;;;;;4900834;29;20138;-84
2022/05/16 04:06:42;;;;;;;7.90;3.50;;;11.20;1.00;;;;;;4905439;29;20051;-85
2022/05/16 04:09:07;;;;;;;6.43;2.97;;;11.20;1.00;;;;;;4899831;29;20047;-84
2022/05/16 04:11:34;;;;;;;5.75;3.05;;;11.20;1.00;;;;;;4897218;29;20130;-84
2022/05/16 04:14:03;;;;;;;4.03;2.63;;;11.30;1.00;;;;;;4885182;29;20051;-83
2022/05/16 04:16:29;;;;;;;6.82;2.90;;;11.30;1.00;;;;;;4917000;29;20916;-84
2022/05/16 04:18:54;;;;;;;7.75;3.05;;;11.40;1.00;;;;;;4883508;29;20047;-84
2022/05/16 04:21:20;;;;;;;4.18;2.95;;;11.40;1.00;;;;;;4917134;29;20044;-85
2022/05/16 04:23:45;;;;;;;4.72;2.97;;;11.50;1.00;;;;;;4899750;29;20031;-84
2022/05/16 04:26:11;;;;;;;8.95;2.90;;;11.50;1.00;;;;;;4899300;29;20107;-84
2022/05/16 04:28:37;;;;;;;5.65;2.83;;;11.50;1.00;;;;;;4898818;29;21536;-84
2022/05/16 04:31:02;;;;;;;4.60;2.50;;;11.60;1.00;;;;;;4900708;29;20075;-84
2022/05/16 04:33:28;;;;;;;4.55;3.03;;;11.70;1.00;;;;;;4900769;29;20066;-84
2022/05/16 04:35:54;;;;;;;6.10;2.78;;;11.70;1.00;;;;;;4900365;29;20103;-84
2022/05/16 04:38:20;;;;;;;4.35;2.65;;;11.80;1.00;;;;;;4885471;29;20032;-83
2022/05/16 04:43:30;;;;;;;4.95;2.88;;;11.90;1.00;;;;;;4920527;29;20090;-84
2022/05/16 04:45:55;;;;;;;8.70;3.10;;;11.80;1.00;;;;;;4902827;29;20051;-83
2022/05/16 04:48:21;;;;;;;5.38;2.80;;;11.90;1.00;;;;;;4903187;29;20075;-83
2022/05/16 04:50:46;;;;;;;5.97;3.15;;;12.10;1.00;;;;;;4904994;29;20062;-84
2022/05/16 04:53:12;;;;;;;4.63;2.63;;;12.10;1.00;;;;;;4926798;29;20039;-84
2022/05/16 04:55:41;;;;;;;7.13;3.10;;;12.00;1.00;;;;;;4907273;29;20082;-84
2022/05/16 04:58:07;;;;;;;7.07;2.90;;;12.10;1.00;;;;;;4908902;29;20043;-84
2022/05/16 05:00:33;;;;;;;5.65;2.60;;;12.10;1.00;;;;;;4906854;29;20122;-84
2022/05/16 05:02:58;;;;;;;6.63;3.00;;;12.10;1.00;;;;;;4907256;29;20439;-84
2022/05/16 05:05:24;;;;;;;6.65;3.17;;;12.20;1.00;;;;;;4911756;29;20056;-83
2022/05/16 05:07:50;;;;;;;5.93;3.00;;;12.20;1.00;;;;;;4889520;29;20055;-83
2022/05/16 05:15:56;;;;;;;5.65;2.95;;;12.50;1.00;;;;;;4904141;29;20051;-83
2022/05/16 05:18:21;;;;;;;6.32;3.45;;;12.60;99.90;;;;;;4934124;28;20103;-84
2022/05/16 05:20:47;;;;;;;6.03;3.10;;;12.80;99.90;;;;;;4904649;29;20043;-85
2022/05/16 05:23:12;;;;;;;8.23;3.20;;;12.80;99.90;;;;;;4938522;29;20489;-84
2022/05/16 05:25:38;;;;;;;4.50;3.33;;;12.90;99.90;;;;;;4907094;29;20046;-84
2022/05/16 05:28:04;;;;;;;5.82;3.20;;;13.00;99.90;;;;;;4910424;29;20048;-84
2022/05/16 05:30:32;;;;;;;6.45;3.17;;;13.20;99.90;;;;;;4904417;29;20039;-84
2022/05/16 05:33:00;;;;;;;6.72;3.03;;;13.50;99.90;;;;;;4903232;29;20327;-84
2022/05/16 05:35:27;;;;;;;6.15;3.10;;;13.50;99.90;;;;;;4902047;29;20412;-84
2022/05/16 05:37:55;;;;;;;5.15;2.92;;;13.50;99.90;;;;;;4903104;29;20052;-85
2022/05/16 05:40:21;;;;;;;6.75;2.95;;;13.60;99.90;;;;;;4903801;29;20389;-85
2022/05/16 05:42:48;;;;;;;9.27;3.63;;;13.60;99.90;;;;;;4892342;29;20501;-83
2022/05/16 05:45:17;;;;;;;9.15;3.45;;;13.80;99.90;;;;;;4921050;29;20517;-84
2022/05/16 05:47:43;;;;;;;6.88;3.33;;;14.00;99.90;;;;;;4905194;29;20047;-84
2022/05/16 05:50:09;;;;;;;8.00;3.20;;;14.10;99.90;;;;;;4890821;29;20115;-84
2022/05/16 05:52:35;;;;;;;6.00;3.40;;;14.00;99.90;;;;;;4888701;29;20064;-84
2022/05/16 05:55:00;;;;;;;5.13;3.30;;;13.90;99.90;;;;;;4901166;29;20050;-84
2022/05/16 05:57:29;;;;;;;5.78;3.28;;;14.00;99.90;;;;;;4901728;29;20081;-83
2022/05/16 05:59:56;;;;;;;6.78;3.10;;;14.20;99.90;;;;;;4902505;29;20198;-84
2022/05/16 06:02:23;;;;;;;5.13;3.03;;;14.40;99.90;;;;;;4899717;29;20040;-84
2022/05/16 06:04:49;;;;;;;4.28;3.08;;;14.40;99.90;;;;;;4885848;29;20094;-85
2022/05/16 06:07:15;;;;;;;6.88;3.47;;;14.50;99.90;;;;;;4885116;29;20063;-85
2022/05/16 06:09:41;;;;;;;7.47;3.42;;;14.50;99.90;;;;;;4901461;29;20486;-84
2022/05/16 06:12:08;;;;;;;5.75;3.25;;;14.50;99.90;;;;;;4902964;29;20055;-84
2022/05/16 06:14:34;;;;;;;6.72;3.40;;;14.40;99.90;;;;;;4904036;29;20457;-84
2022/05/16 06:17:00;;;;;;;6.15;3.13;;;14.20;99.90;;;;;;4901937;29;20078;-84
2022/05/16 06:19:26;;;;;;;6.65;3.38;;;14.20;99.90;;;;;;4906648;29;20553;-85
2022/05/16 06:21:52;;;;;;;7.40;3.28;;;14.10;99.90;;;;;;4903706;29;20402;-84
2022/05/16 06:27:04;;;;;;;8.70;4.18;;;14.30;99.90;;;;;;4893342;29;20060;-84
2022/05/16 06:29:29;;;;;;;9.73;3.38;;;14.60;99.90;;;;;;4883076;29;20429;-83
2022/05/16 06:31:55;;;;;;;7.03;3.20;;;14.60;99.90;;;;;;4881033;29;20043;-84
2022/05/16 06:34:21;;;;;;;10.30;3.50;;;14.80;99.90;;;;;;4881167;29;20079;-84
2022/05/16 06:36:47;;;;;;;7.25;3.60;;;15.10;99.90;;;;;;4884591;29;20074;-84
2022/05/16 06:39:13;;;;;;;6.78;3.50;;;15.20;99.90;;;;;;4886747;29;20397;-84
2022/05/16 06:41:39;;;;;;;7.45;3.30;;;15.50;99.90;;;;;;4890739;29;20123;-84
2022/05/16 06:44:05;;;;;;;7.43;3.83;;;15.60;99.90;;;;;;4886831;29;20458;-84
2022/05/16 06:46:31;;;;;;;6.30;3.42;;;15.80;99.90;;;;;;4887425;29;20062;-84
2022/05/16 06:48:56;;;;;;;7.72;3.25;;;15.80;99.90;;;;;;4885412;29;20047;-84
2022/05/16 06:51:25;;;;;;;13.23;3.60;;;15.90;99.90;;;;;;4882214;29;20047;-84
2022/05/16 06:53:51;;;;;;;8.38;3.42;;;16.10;99.90;;;;;;4882307;29;20050;-84
2022/05/16 06:56:17;;;;;;;8.80;3.15;;;16.20;99.90;;;;;;4886370;29;20047;-84
2022/05/16 06:58:43;;;;;;;6.40;3.70;;;16.40;99.90;;;;;;4881056;29;20047;-84
2022/05/16 07:01:09;;;;;;;7.28;3.22;;;16.40;99.90;;;;;;4870190;29;20562;-85
2022/05/16 07:03:40;;;;;;;8.25;3.80;;;16.50;99.90;;;;;;4885717;29;20059;-85
2022/05/16 07:06:09;;;;;;;7.32;3.60;;;16.80;99.90;;;;;;4887545;29;20131;-84
2022/05/16 07:08:41;;;;;;;6.18;3.30;;;17.00;99.90;;;;;;4886478;29;20048;-84
2022/05/16 07:11:08;;;;;;;7.40;3.15;;;17.20;99.90;;;;;;4901564;29;20111;-83
2022/05/16 07:13:34;;;;;;;9.30;3.20;;;17.30;99.90;;;;;;4881464;29;20055;-84
2022/05/16 07:16:00;;;;;;;8.88;4.05;;;17.40;99.90;;;;;;4885925;29;20044;-83
2022/05/16 07:18:31;;;;;;;12.38;3.40;;;17.40;99.90;;;;;;4884287;29;20044;-85
2022/05/16 07:20:58;;;;;;;8.25;2.90;;;17.50;99.90;;;;;;4882773;29;20398;-85
2022/05/16 07:23:24;;;;;;;6.50;2.95;;;17.70;99.90;;;;;;4864488;29;20078;-84
2022/05/16 07:28:35;;;;;;;9.27;3.10;;;18.00;99.90;;;;;;4922981;29;20067;-84
2022/05/16 07:31:01;;;;;;;12.27;3.75;;;18.20;99.90;;;;;;4895122;29;20039;-85
2022/05/16 07:33:27;;;;;;;7.78;3.08;;;18.20;99.90;;;;;;4921795;29;20392;-85
2022/05/16 07:35:55;;;;;;;7.65;3.35;;;18.40;99.90;;;;;;4903269;29;20046;-85
2022/05/16 07:38:25;;;;;;;10.52;3.22;;;18.50;99.90;;;;;;4900780;29;20091;-84
2022/05/16 07:40:52;;;;;;;9.60;3.42;;;18.50;99.90;;;;;;4889328;29;20115;-84
2022/05/16 07:43:18;;;;;;;9.35;3.67;;;18.50;99.90;;;;;;4904675;29;20043;-85
2022/05/16 07:45:44;;;;;;;7.70;3.00;;;18.60;99.90;;;;;;4903160;29;20084;-84
2022/05/16 07:48:14;;;;;;;9.95;3.50;;;18.90;99.90;;;;;;4901264;29;20134;-85
2022/05/16 07:50:40;;;;;;;8.02;3.75;;;18.90;99.90;;;;;;4887353;29;20040;-84
2022/05/16 07:53:11;;;;;;;7.82;3.17;;;18.90;99.90;;;;;;4890528;29;20485;-84
2022/05/16 07:55:42;;;;;;;11.13;3.63;;;18.90;99.90;;;;;;4924106;29;20162;-84
2022/05/16 07:58:09;;;;;;;7.55;3.25;;;19.10;99.90;;;;;;4887095;29;20043;-85
2022/05/16 08:00:35;;;;;;;7.07;3.70;;;19.20;99.90;;;;;;4904058;29;20039;-85
2022/05/16 08:03:02;;;;;;;8.13;3.20;;;19.30;99.90;;;;;;4899664;29;20079;-85
2022/05/16 08:05:27;;;;;;;8.05;3.33;;;19.60;99.90;;;;;;4908185;29;20122;-85
2022/05/16 08:10:41;;;;;;;6.20;3.38;;;19.80;99.90;;;;;;4917382;29;20051;-85
2022/05/16 08:13:09;;;;;;;7.55;3.20;;;20.00;99.90;;;;;;4886638;29;20122;-85
2022/05/16 08:15:37;;;;;;;6.55;3.15;;;20.20;99.90;;;;;;4935672;28;20519;-84
2022/05/16 08:18:05;;;;;;;9.25;3.10;;;20.40;99.90;;;;;;4900557;29;20035;-84
2022/05/16 08:20:32;;;;;;;7.82;3.30;;;20.30;99.90;;;;;;4888677;29;20043;-84
2022/05/16 08:22:58;;;;;;;7.63;3.47;;;20.10;99.90;;;;;;4886885;29;20398;-84
2022/05/16 08:25:25;;;;;;;5.47;3.00;;;20.20;99.90;;;;;;4902825;29;20197;-84
2022/05/16 08:27:50;;;;;;;8.25;3.08;;;20.20;99.90;;;;;;4899140;29;20063;-84
2022/05/16 08:30:18;;;;;;;10.77;3.17;;;20.30;99.90;;;;;;4901559;29;21750;-83
2022/05/16 08:32:44;;;;;;;11.10;3.30;;;20.50;99.90;;;;;;4900764;29;20650;-83
2022/05/16 08:35:12;;;;;;;9.63;3.17;;;20.70;99.90;;;;;;4901347;29;20036;-84
2022/05/16 08:40:35;;;;;;;7.13;3.40;;;21.20;99.90;;;;;;4914572;29;20043;-85
2022/05/16 08:43:13;;;;;;;8.30;3.88;;;21.40;99.90;;;;;;4884565;29;20047;-85
2022/05/16 08:45:41;;;;;;;7.68;2.90;;;21.40;99.90;;;;;;4886405;29;20581;-83
2022/05/16 08:48:09;;;;;;;8.95;2.90;;;21.50;99.90;;;;;;4899008;29;20518;-84
2022/05/16 08:50:49;;;;;;;12.38;3.38;;;21.70;99.90;;;;;;4899884;29;20568;-84
2022/05/16 08:53:51;;;;;;;7.57;3.20;;;21.50;99.90;;;;;;4885768;29;20176;-84
2022/05/16 08:56:22;;;;;;;9.32;3.25;;;21.70;99.90;;;;;;4884641;29;20043;-85
2022/05/16 08:59:05;;;;;;;11.93;3.40;;;21.70;99.90;;;;;;4906267;29;20382;-84
2022/05/16 09:01:49;;;;;;;7.78;3.13;;;22.00;99.90;;;;;;4889772;29;20050;-85
2022/05/16 09:04:24;;;;;;;8.35;3.10;;;22.30;99.90;;;;;;4904898;29;20079;-86
2022/05/16 09:07:14;;;;;;;8.43;3.13;;;22.40;99.90;;;;;;4886469;29;20350;-84
2022/05/16 09:09:51;;;;;;;9.27;3.10;;;22.50;99.90;;;;;;4920557;29;20477;-85
2022/05/16 09:12:34;;;;;;;9.07;3.40;;;22.70;99.90;;;;;;4900337;29;20043;-84
2022/05/16 09:15:19;;;;;;;9.60;3.03;;;22.60;99.90;;;;;;4906273;29;20186;-84
2022/05/16 09:17:45;;;;;;;;;;;22.90;99.90;;;;;;4903698;29;20099;-85
2022/05/16 09:20:31;;;;;;;9.23;2.95;;;22.60;99.90;;;;;;4884273;29;19927;-85
2022/05/16 09:23:26;;;;;;;8.00;3.10;;;22.80;99.90;;;;;;4901985;29;20510;-84
2022/05/16 09:26:10;;;;;;;9.33;3.27;;;22.90;99.90;;;;;;4903442;29;20106;-85
2022/05/16 09:28:52;;;;;;;8.00;2.95;;;23.00;99.90;;;;;;4916833;29;20499;-84
2022/05/16 09:31:27;;;;;;;6.43;2.80;;;23.40;99.90;;;;;;4899774;29;20110;-84
2022/05/16 09:33:58;;;;;;;6.97;2.88;;;23.80;99.90;;;;;;4916836;29;20040;-85
2022/05/16 09:36:34;;;;;;;7.45;3.20;;;24.00;99.90;;;;;;4897871;29;20048;-84
2022/05/16 09:39:00;;;;;;;8.82;3.20;;;24.30;99.90;;;;;;4889229;29;20115;-85
2022/05/16 09:41:36;;;;;;;7.75;2.88;;;24.50;99.90;;;;;;4901133;29;20061;-85
2022/05/16 09:44:28;;;;;;;8.23;2.78;;;24.60;99.90;;;;;;4903781;29;20083;-84
2022/05/16 09:47:19;;;;;;;7.65;3.10;;;24.60;99.90;;;;;;4903290;29;20127;-85
2022/05/16 09:49:58;;;;;;;9.32;3.00;;;24.80;99.90;;;;;;4905671;29;20144;-85
2022/05/16 09:52:23;;;;;;;9.63;3.00;;;24.70;99.90;;;;;;4907032;29;20434;-85
2022/05/16 09:55:07;;;;;;;8.93;2.97;;;24.50;99.90;;;;;;4916563;29;20115;-85
2022/05/16 09:57:53;;;;;;;6.60;2.50;;;24.50;99.90;;;;;;4920063;29;20051;-85
2022/05/16 10:00:22;;;;;;;6.18;2.90;;;24.70;99.90;;;;;;4889634;29;20080;-85
2022/05/16 10:03:12;;;;;;;8.07;2.85;;;24.80;99.90;;;;;;4903156;29;20035;-85
2022/05/16 10:05:46;;;;;;;6.75;2.83;;;25.00;99.90;;;;;;4886281;29;20046;-85
2022/05/16 10:08:16;;;;;;;5.40;2.50;;;25.30;99.90;;;;;;4921435;29;20130;-84
2022/05/16 10:10:48;;;;;;;5.97;2.58;;;25.60;99.90;;;;;;4901767;29;20039;-85
2022/05/16 10:13:17;;;;;;;11.13;2.90;;;26.30;99.90;;;;;;4886751;29;20048;-84
2022/05/16 10:15:48;;;;;;;8.07;2.88;;;26.10;99.90;;;;;;4903033;29;20047;-85
2022/05/16 10:18:18;;;;;;;6.32;2.80;;;26.50;99.90;;;;;;4918271;29;20409;-85
2022/05/16 10:20:51;;;;;;;7.40;2.40;;;26.30;99.90;;;;;;4902235;29;20131;-84
2022/05/16 10:23:31;;;;;;;7.10;2.40;;;26.30;99.90;;;;;;4902786;29;20039;-84
2022/05/16 10:26:03;;;;;;;7.15;2.67;;;26.10;99.90;;;;;;4888182;29;20046;-85
2022/05/16 10:28:35;;;;;;;5.95;2.50;;;26.50;99.90;;;;;;4899866;29;20147;-86
2022/05/16 10:33:51;;;;;;;7.10;2.50;;;26.20;99.90;;;;;;4920293;29;20048;-85
2022/05/16 10:36:26;;;;;;;7.00;3.30;;;26.00;99.90;;;;;;4885861;29;20136;-85
2022/05/16 10:39:09;;;;;;;9.85;2.90;;;26.20;97.30;;;;;;4886281;29;20521;-85
2022/05/16 10:42:00;;;;;;;6.90;2.60;;;26.00;95.40;;;;;;4903239;29;20057;-85
2022/05/16 10:44:47;;;;;;;6.20;2.67;;;26.20;94.90;;;;;;4885964;29;20078;-85
2022/05/16 10:47:19;;;;;;;10.23;3.00;;;26.50;95.90;;;;;;4901048;29;20336;-85
2022/05/16 10:50:06;;;;;;;11.57;2.90;;;26.50;95.00;;;;;;4885274;29;20098;-86
2022/05/16 10:52:32;;;;;;;5.88;2.70;;;26.50;93.90;;;;;;4902227;29;20044;-85
2022/05/16 10:54:58;;;;;;;8.90;2.70;;;26.40;93.90;;;;;;4886334;29;20054;-86
2022/05/16 10:57:45;;;;;;;8.60;2.95;;;26.60;94.20;;;;;;4903339;29;20757;-85
2022/05/16 11:00:18;;;;;;;5.30;2.25;;;26.60;94.70;;;;;;4887433;29;20074;-85
2022/05/16 11:03:07;;;;;;;8.48;3.25;;;26.80;96.60;;;;;;4899794;29;20043;-84
2022/05/16 11:05:39;;;;;;;6.35;2.72;;;26.80;94.60;;;;;;4905440;29;20648;-86
2022/05/16 11:08:24;;;;;;;6.28;2.83;;;26.60;92.90;;;;;;4907451;29;20070;-85
2022/05/16 11:10:49;;;;;;;6.28;2.60;;;26.40;93.10;;;;;;4888809;29;20039;-85
2022/05/16 11:13:41;;;;;;;5.60;2.42;;;26.20;91.00;;;;;;4890862;29;20067;-85
2022/05/16 11:16:18;;;;;;;6.60;2.42;;;25.60;91.00;;;;;;4882949;29;20047;-84
2022/05/16 11:19:13;;;;;;;6.68;2.45;;;25.30;86.30;;;;;;4901577;29;20484;-85
2022/05/16 11:21:39;;;;;;;;;;;25.10;90.90;;;;;;4886449;29;20134;-84
2022/05/16 11:24:16;;;;;;;6.45;2.45;;;25.10;85.80;;;;;;4933932;28;20313;-85
2022/05/16 11:27:04;;;;;;;5.80;2.63;;;24.90;90.10;;;;;;4916957;29;20875;-85
2022/05/16 11:30:03;;;;;;;7.85;2.90;;;25.00;87.00;;;;;;4906450;29;20048;-84
2022/05/16 11:33:06;;;;;;;7.90;2.65;;;24.80;87.60;;;;;;4907851;29;20241;-85
2022/05/16 11:35:35;;;;;;;4.28;2.55;;;24.90;87.10;;;;;;4884594;29;20079;-85
2022/05/16 11:38:19;;;;;;;9.68;3.08;;;24.60;88.80;;;;;;4891708;29;20031;-84
2022/05/16 11:40:56;;;;;;;7.10;2.60;;;24.60;84.30;;;;;;4925880;29;20063;-85
2022/05/16 11:43:34;;;;;;;5.38;2.60;;;24.50;86.40;;;;;;4891404;29;20099;-85
2022/05/16 11:46:39;;;;;;;6.97;2.65;;;24.50;87.00;;;;;;4902658;29;20057;-85
2022/05/16 11:49:40;;;;;;;9.98;3.35;;;24.60;88.80;;;;;;4896161;29;20114;-84
2022/05/16 11:52:44;;;;;;;5.97;2.85;;;24.60;92.20;;;;;;4899197;29;20099;-85
2022/05/16 12:01:07;;;;;;;7.90;3.03;;;24.70;94.00;;;;;;4916381;28;20039;-85
2022/05/16 12:03:36;;;;;;;8.48;3.00;;;24.90;96.80;;;;;;4919699;29;20438;-84
2022/05/16 12:06:33;;;;;;;8.57;3.17;;;24.90;99.60;;;;;;4890277;29;20094;-85
2022/05/16 12:09:19;;;;;;;8.43;3.10;;;24.80;99.70;;;;;;4903234;29;20641;-85
2022/05/16 12:11:51;;;;;;;7.32;3.20;;;25.00;99.90;;;;;;4901110;29;20461;-84
2022/05/16 12:14:34;;;;;;;6.00;2.92;;;24.90;99.90;;;;;;4904132;29;20369;-86
2022/05/16 12:17:14;;;;;;;7.85;3.20;;;24.90;99.90;;;;;;4920808;29;20284;-85
2022/05/16 12:19:42;;;;;;;5.95;3.00;;;24.90;99.90;;;;;;4905406;29;20111;-86
2022/05/16 12:22:11;;;;;;;7.20;3.10;;;24.90;99.90;;;;;;4890127;29;20478;-84
2022/05/16 12:24:57;;;;;;;9.25;3.13;;;24.80;99.90;;;;;;4903845;29;20044;-85
2022/05/16 12:27:26;;;;;;;10.02;3.22;;;24.70;99.90;;;;;;4896922;29;20067;-85
2022/05/16 12:29:56;;;;;;;7.05;3.38;;;24.50;99.90;;;;;;4881621;29;20147;-86
2022/05/16 12:32:47;;;;;;;8.50;3.50;;;24.50;99.90;;;;;;4883339;29;20040;-85
2022/05/16 12:35:38;;;;;;;6.85;2.97;;;24.50;99.90;;;;;;4867458;29;20540;-86
2022/05/16 12:38:04;;;;;;;8.30;3.30;;;24.40;99.90;;;;;;4868996;29;20457;-84
2022/05/16 12:40:45;;;;;;;9.10;3.40;;;24.50;99.90;;;;;;4884323;29;20123;-85
2022/05/16 12:43:26;;;;;;;9.38;4.05;;;24.50;99.90;;;;;;4866409;29;20051;-85
2022/05/16 12:46:43;;;;;;;8.55;4.30;;;24.70;99.90;;;;;;4881935;29;20506;-85
2022/05/16 12:49:28;;;;;;;7.10;3.45;;;24.80;99.90;;;;;;4833824;29;20155;-85
2022/05/16 12:51:59;;;;;;;;;;;25.10;99.90;;;;;;4831308;29;20038;-85
2022/05/16 12:54:32;;;;;;;8.65;3.83;;;25.30;99.90;;;;;;4865687;29;19926;-86
2022/05/16 12:57:01;;;;;;;8.30;3.60;;;25.40;99.90;;;;;;4884797;29;20040;-86
2022/05/16 12:59:39;;;;;;;10.32;3.83;;;25.70;99.90;;;;;;4883535;29;20045;-85
2022/05/16 13:02:29;;;;;;;8.95;3.83;;;26.00;99.90;;;;;;4879044;29;20048;-85
2022/05/16 13:05:15;;;;;;;10.52;4.20;;;26.00;99.90;;;;;;4884807;29;20535;-85
2022/05/16 13:08:14;;;;;;;10.93;4.03;;;26.10;99.90;;;;;;4887391;29;20070;-86
2022/05/16 13:10:39;;;;;;;9.82;4.07;;;26.50;99.90;;;;;;4869204;29;20051;-85
2022/05/16 13:13:24;;;;;;;8.07;3.83;;;26.60;99.90;;;;;;4873049;29;20331;-86
2022/05/16 13:16:06;;;;;;;10.88;4.28;;;27.00;99.90;;;;;;4891827;29;20051;-86
2022/05/16 13:18:39;;;;;;;9.07;4.40;;;26.90;99.90;;;;;;4875739;29;20581;-86
2022/05/16 13:21:13;;;;;;;11.75;4.00;;;26.90;99.90;;;;;;4874517;29;20078;-86
2022/05/16 13:23:42;;;;;;;8.80;4.10;;;26.90;99.90;;;;;;4890327;29;20454;-85
2022/05/16 13:31:44;;;;;;;11.15;4.00;;;26.50;99.90;;;;;;4884608;29;19933;-85
2022/05/16 13:34:12;;;;;;;9.55;4.38;;;26.30;99.90;;;;;;4873572;29;20051;-85
2022/05/16 13:36:46;;;;;;;10.05;4.40;;;26.30;99.90;;;;;;4871598;29;20252;-85
2022/05/16 13:39:15;;;;;;;12.82;4.60;;;26.10;99.90;;;;;;4887542;29;20135;-86
2022/05/16 13:41:41;;;;;;;8.77;4.07;;;26.30;99.90;;;;;;4903710;29;20029;-85
2022/05/16 13:44:12;;;;;;;6.70;3.80;;;26.20;99.90;;;;;;4872586;29;20047;-85
2022/05/16 13:46:37;;;;;;;12.00;4.32;;;26.10;99.90;;;;;;4912210;29;20484;-84
2022/05/16 13:49:09;;;;;;;10.57;4.00;;;25.90;99.90;;;;;;4885613;29;20402;-85
2022/05/16 13:51:43;;;;;;;11.02;3.92;;;26.10;99.90;;;;;;4870460;29;20379;-85
2022/05/16 13:54:14;;;;;;;10.00;4.20;;;25.70;99.90;;;;;;4885059;29;20438;-84